Time;durP1;ratioP1;P1;durP2;ratioP2;P2;SDS_P1;SDS_P2;PMS_P1;PMS_P2;Temp;Humidity;BMP_temperature;BMP_pressure;BME280_temperature;BME280_humidity;BME280_pressure;Samples;Min_cycle;Max_cycle;Signal;HPM_P1;HPM_P2
2022/04/08 00:00:58;;;;;;;6.70;1.40;;;;;;;;;;5083304;28;20114;-55
2022/04/08 00:03:27;;;;;;;1.95;0.80;;;;;;;;;;5082502;28;20359;-54
2022/04/08 00:05:52;;;;;;;4.95;1.98;;;;;;;;;;5082579;28;20044;-54
2022/04/08 00:08:21;;;;;;;9.00;1.90;;;;;;;;;;5080191;28;20097;-56
2022/04/08 00:10:46;;;;;;;8.50;1.60;;;;;;;;;;5083948;28;20071;-55
2022/04/08 00:13:12;;;;;;;3.35;1.70;;;;;;;;;;5082802;28;20418;-55
2022/04/08 00:15:38;;;;;;;2.67;1.60;;;;;;;;;;5080937;28;20408;-56
2022/04/08 00:18:04;;;;;;;5.30;2.03;;;;;;;;;;5085323;28;20089;-55
2022/04/08 00:20:30;;;;;;;2.40;1.55;;;;;;;;;;5077300;28;20099;-55
2022/04/08 00:22:55;;;;;;;2.58;1.80;;;;;;;;;;5081863;28;20767;-56
2022/04/08 00:25:21;;;;;;;1.88;1.08;;;;;;;;;;5078718;28;20138;-53
2022/04/08 00:27:46;;;;;;;7.28;2.47;;;;;;;;;;5083253;28;20457;-55
2022/04/08 00:30:11;;;;;;;3.85;1.50;;;;;;;;;;5082176;28;20077;-55
2022/04/08 00:32:37;;;;;;;1.75;1.10;;;;;;;;;;5082122;28;20059;-54
2022/04/08 00:35:02;;;;;;;3.42;2.03;;;;;;;;;;5085839;28;20723;-56
2022/04/08 00:37:27;;;;;;;6.20;2.38;;;;;;;;;;5078688;28;20079;-55
2022/04/08 00:39:53;;;;;;;2.58;1.88;;;;;;;;;;5081936;28;20127;-51
2022/04/08 00:42:18;;;;;;;4.45;2.33;;;;;;;;;;5082977;28;20044;-56
2022/04/08 00:44:43;;;;;;;2.15;1.10;;;;;;;;;;5076646;28;20187;-55
2022/04/08 00:47:08;;;;;;;3.60;1.88;;;;;;;;;;5080901;28;20526;-54
2022/04/08 00:49:36;;;;;;;9.02;1.95;;;;;;;;;;5081739;28;20503;-55
2022/04/08 00:52:01;;;;;;;6.53;3.72;;;;;;;;;;5086130;28;20040;-55
2022/04/08 00:54:28;;;;;;;7.97;1.13;;;;;;;;;;5088929;28;20733;-54
2022/04/08 00:56:53;;;;;;;3.10;1.88;;;;;;;;;;5087605;28;20039;-55
2022/04/08 00:59:18;;;;;;;4.55;2.25;;;;;;;;;;5083927;28;20054;-55
2022/04/08 01:01:44;;;;;;;2.30;1.63;;;;;;;;;;5088333;28;20040;-55
2022/04/08 01:04:09;;;;;;;2.03;1.50;;;;;;;;;;5084443;28;20051;-54
2022/04/08 01:06:35;;;;;;;2.35;1.42;;;;;;;;;;5085596;28;20035;-56
2022/04/08 01:09:00;;;;;;;4.28;1.63;;;;;;;;;;5084750;28;20538;-54
2022/04/08 01:11:26;;;;;;;3.70;2.05;;;;;;;;;;5088889;28;20051;-55
2022/04/08 01:13:51;;;;;;;7.22;1.90;;;;;;;;;;5088527;28;20138;-54
2022/04/08 01:16:19;;;;;;;4.55;2.25;;;;;;;;;;5084293;28;20135;-54
2022/04/08 01:18:44;;;;;;;2.83;1.90;;;;;;;;;;5088500;28;20666;-55
2022/04/08 01:21:09;;;;;;;3.25;2.15;;;;;;;;;;5086079;28;20048;-56
2022/04/08 01:23:35;;;;;;;3.35;1.58;;;;;;;;;;5085858;28;20054;-54
2022/04/08 01:26:07;;;;;;;7.28;2.63;;;;;;;;;;5087858;28;20155;-55
2022/04/08 01:28:33;;;;;;;4.07;2.63;;;;;;;;;;5085384;28;20118;-55
2022/04/08 01:30:58;;;;;;;3.67;2.10;;;;;;;;;;5085484;28;20498;-55
2022/04/08 01:33:23;;;;;;;6.90;1.95;;;;;;;;;;5081712;28;20053;-55
2022/04/08 01:35:49;;;;;;;4.43;2.65;;;;;;;;;;5082382;28;20050;-54
2022/04/08 01:38:14;;;;;;;9.38;2.03;;;;;;;;;;5085866;28;20490;-52
2022/04/08 01:40:40;;;;;;;3.35;1.58;;;;;;;;;;5083183;28;20521;-56
2022/04/08 01:43:05;;;;;;;2.00;1.02;;;;;;;;;;5085818;28;20032;-55
2022/04/08 01:45:30;;;;;;;3.60;1.95;;;;;;;;;;5086093;28;20146;-55
2022/04/08 01:47:56;;;;;;;3.10;2.00;;;;;;;;;;5084348;28;20056;-54
2022/04/08 01:50:22;;;;;;;3.60;2.53;;;;;;;;;;5077739;28;20423;-55
2022/04/08 01:52:47;;;;;;;2.03;1.40;;;;;;;;;;5084918;28;20068;-57
2022/04/08 01:55:14;;;;;;;4.68;2.60;;;;;;;;;;5085535;28;20043;-53
2022/04/08 01:57:41;;;;;;;4.93;2.00;;;;;;;;;;5085202;28;20044;-56
2022/04/08 02:00:08;;;;;;;4.85;2.25;;;;;;;;;;5086492;28;20560;-54
2022/04/08 02:02:33;;;;;;;2.97;1.52;;;;;;;;;;5081570;28;20838;-55
2022/04/08 02:04:59;;;;;;;8.02;2.60;;;;;;;;;;5082810;28;20132;-54
2022/04/08 02:07:24;;;;;;;3.30;2.00;;;;;;;;;;5083805;28;20044;-55
2022/04/08 02:09:49;;;;;;;2.53;1.80;;;;;;;;;;5087497;28;20063;-54
2022/04/08 02:12:15;;;;;;;3.05;2.30;;;;;;;;;;5086231;28;20036;-56
2022/04/08 02:14:40;;;;;;;1.02;0.88;;;;;;;;;;5087450;28;20563;-54
2022/04/08 02:17:05;;;;;;;2.45;1.45;;;;;;;;;;5083404;28;20098;-54
2022/04/08 02:19:31;;;;;;;5.70;2.28;;;;;;;;;;5085618;28;20080;-54
2022/04/08 02:21:58;;;;;;;3.10;1.80;;;;;;;;;;5086926;28;20040;-55
2022/04/08 02:24:23;;;;;;;3.88;1.55;;;;;;;;;;5083788;28;20070;-54
2022/04/08 02:26:48;;;;;;;4.93;1.58;;;;;;;;;;5083547;28;20040;-54
2022/04/08 02:29:14;;;;;;;3.55;1.67;;;;;;;;;;5085057;28;20504;-54
2022/04/08 02:31:39;;;;;;;3.30;1.17;;;;;;;;;;5082402;28;20042;-56
2022/04/08 02:34:04;;;;;;;1.58;1.15;;;;;;;;;;5083723;28;20074;-56
2022/04/08 02:36:30;;;;;;;6.32;1.75;;;;;;;;;;5085527;28;20446;-54
2022/04/08 02:38:55;;;;;;;2.17;1.33;;;;;;;;;;5085070;28;20492;-55
2022/04/08 02:41:20;;;;;;;6.25;2.35;;;;;;;;;;5085229;28;20059;-55
2022/04/08 02:43:46;;;;;;;2.28;1.35;;;;;;;;;;5083795;28;20044;-53
2022/04/08 02:46:11;;;;;;;2.03;1.52;;;;;;;;;;5084855;28;20063;-54
2022/04/08 02:48:36;;;;;;;2.88;1.70;;;;;;;;;;5080624;28;20060;-54
2022/04/08 02:51:01;;;;;;;4.38;2.47;;;;;;;;;;5083119;28;20052;-56
2022/04/08 02:53:27;;;;;;;2.53;1.40;;;;;;;;;;5084400;28;20075;-56
2022/04/08 02:55:52;;;;;;;3.15;2.33;;;;;;;;;;5085690;28;20528;-55
2022/04/08 02:58:17;;;;;;;3.35;2.30;;;;;;;;;;5085754;28;20052;-55
2022/04/08 03:00:43;;;;;;;8.60;2.30;;;;;;;;;;5087272;28;20115;-54
2022/04/08 03:03:08;;;;;;;2.42;1.90;;;;;;;;;;5085823;28;20128;-52
2022/04/08 03:05:33;;;;;;;6.78;2.13;;;;;;;;;;5083776;28;20070;-53
2022/04/08 03:07:58;;;;;;;5.60;2.22;;;;;;;;;;5083988;28;20085;-53
2022/04/08 03:10:24;;;;;;;7.93;2.10;;;;;;;;;;5083018;28;20040;-54
2022/04/08 03:12:49;;;;;;;5.57;1.60;;;;;;;;;;5082913;28;20076;-54
2022/04/08 03:15:14;;;;;;;2.72;2.00;;;;;;;;;;5080384;28;20048;-55
2022/04/08 03:17:40;;;;;;;4.18;1.33;;;;;;;;;;5081781;28;20075;-55
2022/04/08 03:20:05;;;;;;;4.43;1.60;;;;;;;;;;5083354;28;20078;-55
2022/04/08 03:22:31;;;;;;;2.10;1.58;;;;;;;;;;5083066;28;20051;-54
2022/04/08 03:24:56;;;;;;;3.53;1.55;;;;;;;;;;5083025;28;20396;-54
2022/04/08 03:27:21;;;;;;;4.35;1.95;;;;;;;;;;5083271;28;20036;-54
2022/04/08 03:29:48;;;;;;;15.93;2.53;;;;;;;;;;5085406;28;20040;-55
2022/04/08 03:32:13;;;;;;;3.00;1.70;;;;;;;;;;5081179;28;20052;-55
2022/04/08 03:34:39;;;;;;;2.63;1.73;;;;;;;;;;5084391;28;20066;-55
2022/04/08 03:37:04;;;;;;;5.22;2.30;;;;;;;;;;5084668;28;20514;-55
2022/04/08 03:39:30;;;;;;;6.75;2.28;;;;;;;;;;5083019;28;20048;-53
2022/04/08 03:41:55;;;;;;;4.07;2.88;;;;;;;;;;5082740;28;20420;-55
2022/04/08 03:44:20;;;;;;;5.57;3.50;;;;;;;;;;5082082;28;20055;-54
2022/04/08 03:46:46;;;;;;;3.33;1.88;;;;;;;;;;5084246;28;20051;-54
2022/04/08 03:49:15;;;;;;;6.72;2.00;;;;;;;;;;5081928;28;20109;-55
2022/04/08 03:51:41;;;;;;;3.97;2.08;;;;;;;;;;5084240;28;20056;-55
2022/04/08 03:54:07;;;;;;;4.68;1.58;;;;;;;;;;5081230;28;20044;-54
2022/04/08 03:56:33;;;;;;;2.97;1.77;;;;;;;;;;5082936;28;20054;-55
2022/04/08 03:58:58;;;;;;;6.20;2.90;;;;;;;;;;5084728;28;20040;-55
2022/04/08 04:01:23;;;;;;;1.45;1.17;;;;;;;;;;5084776;28;20134;-53
2022/04/08 04:03:49;;;;;;;2.70;1.45;;;;;;;;;;5081597;28;20060;-55
2022/04/08 04:06:15;;;;;;;4.93;1.90;;;;;;;;;;5083533;28;20059;-53
2022/04/08 04:08:40;;;;;;;3.28;2.22;;;;;;;;;;5074601;28;20033;-54
2022/04/08 04:11:06;;;;;;;2.50;1.55;;;;;;;;;;5083818;28;20119;-55
2022/04/08 04:13:31;;;;;;;3.15;2.58;;;;;;;;;;5080875;28;20538;-55
2022/04/08 04:15:56;;;;;;;4.90;2.13;;;;;;;;;;5080441;28;20036;-53
2022/04/08 04:18:22;;;;;;;5.18;1.73;;;;;;;;;;5083337;28;20052;-55
2022/04/08 04:20:47;;;;;;;40.75;9.98;;;;;;;;;;5082327;28;20099;-52
2022/04/08 04:23:12;;;;;;;13.20;2.83;;;;;;;;;;5082985;28;20116;-53
2022/04/08 04:25:38;;;;;;;1.92;1.33;;;;;;;;;;5084007;28;20097;-54
2022/04/08 04:28:04;;;;;;;4.72;2.65;;;;;;;;;;5084257;28;20039;-55
2022/04/08 04:30:30;;;;;;;4.95;2.28;;;;;;;;;;5081467;28;20044;-54
2022/04/08 04:32:56;;;;;;;8.13;3.60;;;;;;;;;;5077396;28;20105;-52
2022/04/08 04:35:22;;;;;;;7.00;3.03;;;;;;;;;;5082725;28;20105;-54
2022/04/08 04:37:47;;;;;;;11.88;3.83;;;;;;;;;;5080495;28;20457;-55
2022/04/08 04:40:12;;;;;;;5.47;1.92;;;;;;;;;;5080297;28;20052;-55
2022/04/08 04:42:38;;;;;;;3.78;2.60;;;;;;;;;;5084203;28;20043;-56
2022/04/08 04:45:03;;;;;;;12.88;3.60;;;;;;;;;;5082887;28;20036;-53
2022/04/08 04:47:29;;;;;;;7.97;3.38;;;;;;;;;;5082448;28;20044;-55
2022/04/08 04:49:54;;;;;;;5.57;3.20;;;;;;;;;;5077117;28;20463;-54
2022/04/08 04:52:19;;;;;;;6.13;2.67;;;;;;;;;;5082722;28;20519;-54
2022/04/08 04:54:45;;;;;;;8.30;2.42;;;;;;;;;;5083560;28;20619;-54
2022/04/08 04:57:10;;;;;;;5.50;2.55;;;;;;;;;;5082357;28;20047;-55
2022/04/08 04:59:35;;;;;;;4.85;2.47;;;;;;;;;;5080777;28;20056;-54
2022/04/08 05:02:01;;;;;;;9.18;2.75;;;;;;;;;;5084191;28;20044;-55
2022/04/08 05:04:26;;;;;;;4.40;2.28;;;;;;;;;;5085028;28;20047;-54
2022/04/08 05:06:51;;;;;;;9.02;2.80;;;;;;;;;;5076561;28;20189;-54
2022/04/08 05:09:17;;;;;;;5.88;3.38;;;;;;;;;;5076560;28;20032;-54
2022/04/08 05:11:42;;;;;;;6.50;4.32;;;;;;;;;;5082174;28;20047;-56
2022/04/08 05:14:07;;;;;;;11.80;3.53;;;;;;;;;;5082330;28;20048;-54
2022/04/08 05:16:33;;;;;;;24.73;5.75;;;;;;;;;;5077970;28;20044;-55
2022/04/08 05:18:58;;;;;;;27.77;4.00;;;;;;;;;;5081211;28;20051;-53
2022/04/08 05:21:24;;;;;;;8.15;1.88;;;;;;;;;;5080719;28;20061;-53
2022/04/08 05:23:49;;;;;;;7.38;2.47;;;;;;;;;;5076681;28;20037;-54
2022/04/08 05:26:15;;;;;;;6.15;3.03;;;;;;;;;;5078924;28;20067;-56
2022/04/08 05:28:40;;;;;;;8.05;7.20;;;;;;;;;;5083189;28;20055;-56
2022/04/08 05:31:05;;;;;;;9.73;5.55;;;;;;;;;;5081634;28;20120;-56
2022/04/08 05:33:31;;;;;;;5.65;4.13;;;;;;;;;;5080057;28;20515;-55
2022/04/08 05:35:56;;;;;;;4.80;3.17;;;;;;;;;;5083746;28;20052;-55
2022/04/08 05:38:21;;;;;;;6.28;2.67;;;;;;;;;;5084459;28;20048;-57
2022/04/08 05:40:49;;;;;;;7.80;3.70;;;;;;;;;;5086700;28;20503;-56
2022/04/08 05:43:15;;;;;;;13.98;3.63;;;;;;;;;;5085927;28;20040;-56
2022/04/08 05:45:40;;;;;;;8.68;4.32;;;;;;;;;;5084928;28;20112;-56
2022/04/08 05:48:06;;;;;;;5.22;4.50;;;;;;;;;;5057074;28;20040;-56
2022/04/08 05:50:32;;;;;;;4.80;4.30;;;;;;;;;;5082073;28;20051;-58
2022/04/08 05:52:57;;;;;;;20.02;6.82;;;;;;;;;;5083699;28;21004;-57
2022/04/08 05:55:23;;;;;;;8.35;6.50;;;;;;;;;;5083574;28;20035;-55
2022/04/08 05:57:48;;;;;;;11.07;7.00;;;;;;;;;;5085594;28;20056;-56
2022/04/08 06:00:14;;;;;;;28.50;9.35;;;;;;;;;;5081882;28;20055;-57
2022/04/08 06:02:43;;;;;;;12.90;8.90;;;;;;;;;;5085146;28;20040;-55
2022/04/08 06:05:08;;;;;;;15.13;9.82;;;;;;;;;;5073822;28;20048;-58
2022/04/08 06:07:34;;;;;;;19.20;12.30;;;;;;;;;;5084859;28;20060;-57
2022/04/08 06:10:01;;;;;;;12.15;10.95;;;;;;;;;;5082262;28;20071;-56
2022/04/08 06:12:26;;;;;;;12.52;11.25;;;;;;;;;;5082762;28;20056;-57
2022/04/08 06:14:53;;;;;;;8.50;7.65;;;;;;;;;;5084202;28;20119;-56
2022/04/08 06:17:18;;;;;;;27.80;11.18;;;;;;;;;;5079275;28;20407;-57
2022/04/08 06:19:46;;;;;;;19.50;10.35;;;;;;;;;;5081283;28;20047;-56
2022/04/08 06:22:12;;;;;;;15.23;13.23;;;;;;;;;;5082432;28;20148;-56
2022/04/08 06:24:37;;;;;;;25.70;22.50;;;;;;;;;;5081251;28;20085;-47
2022/04/08 06:27:02;;;;;;;24.52;21.13;;;;;;;;;;5075111;28;20176;-44
2022/04/08 06:29:28;;;;;;;37.80;27.45;;;;;;;;;;5080130;28;20032;-45
2022/04/08 06:31:53;;;;;;;33.22;28.42;;;;;;;;;;5082854;28;20047;-47
2022/04/08 06:34:18;;;;;;;43.22;33.47;;;;;;;;;;5080235;28;20050;-43
2022/04/08 06:36:44;;;;;;;54.25;42.78;;;;;;;;;;5081359;28;20815;-44
2022/04/08 06:39:09;;;;;;;44.67;37.78;;;;;;;;;;5080785;28;20112;-45
2022/04/08 06:41:34;;;;;;;50.75;44.67;;;;;;;;;;5077432;28;20052;-45
2022/04/08 06:44:00;;;;;;;71.60;63.90;;;;;;;;;;5073457;28;20048;-42
2022/04/08 06:46:25;;;;;;;81.15;68.22;;;;;;;;;;5082434;28;20625;-42
2022/04/08 06:48:50;;;;;;;81.93;73.55;;;;;;;;;;5082457;28;20323;-45
2022/04/08 06:51:16;;;;;;;69.20;61.78;;;;;;;;;;5083016;28;20054;-49
2022/04/08 06:53:41;;;;;;;59.88;53.53;;;;;;;;;;5081533;28;20616;-48
2022/04/08 06:56:07;;;;;;;73.80;51.97;;;;;;;;;;5080882;28;20044;-49
2022/04/08 06:58:38;;;;;;;49.92;37.53;;;;;;;;;;5079916;28;20641;-45
2022/04/08 07:01:04;;;;;;;61.47;42.22;;;;;;;;;;5081730;28;20164;-43
2022/04/08 07:03:29;;;;;;;59.25;49.03;;;;;;;;;;5082144;28;20543;-45
2022/04/08 07:05:54;;;;;;;54.22;46.30;;;;;;;;;;5083055;28;20700;-46
2022/04/08 07:08:20;;;;;;;48.85;43.60;;;;;;;;;;5084159;28;20044;-44
2022/04/08 07:10:45;;;;;;;59.67;44.58;;;;;;;;;;5082506;28;20056;-46
2022/04/08 07:13:10;;;;;;;55.05;39.47;;;;;;;;;;5078309;28;20447;-46
2022/04/08 07:15:36;;;;;;;43.53;38.10;;;;;;;;;;5081358;28;20047;-46
2022/04/08 07:18:04;;;;;;;39.80;35.42;;;;;;;;;;5080133;28;20109;-45
2022/04/08 07:20:30;;;;;;;42.35;37.50;;;;;;;;;;5082834;28;20053;-44
2022/04/08 07:22:55;;;;;;;58.95;34.78;;;;;;;;;;5084145;28;20044;-48
2022/04/08 07:25:20;;;;;;;49.03;34.78;;;;;;;;;;5078979;28;20460;-46
2022/04/08 07:27:47;;;;;;;56.65;47.88;;;;;;;;;;5078216;28;20040;-45
2022/04/08 07:30:13;;;;;;;39.13;32.92;;;;;;;;;;5079423;28;20054;-49
2022/04/08 07:32:38;;;;;;;31.05;21.65;;;;;;;;;;5081434;28;20782;-50
2022/04/08 07:35:04;;;;;;;41.20;28.50;;;;;;;;;;5078386;28;20055;-48
2022/04/08 07:37:30;;;;;;;77.82;60.08;;;;;;;;;;5081047;28;20059;-44
2022/04/08 07:39:56;;;;;;;77.03;65.50;;;;;;;;;;5083029;28;20051;-47
2022/04/08 07:42:21;;;;;;;67.00;45.60;;;;;;;;;;5077477;28;20032;-42
2022/04/08 07:44:47;;;;;;;48.08;34.72;;;;;;;;;;5077821;28;20428;-45
2022/04/08 07:47:12;;;;;;;52.05;40.75;;;;;;;;;;5078891;28;20534;-47
2022/04/08 07:49:37;;;;;;;58.38;39.88;;;;;;;;;;5078813;28;20039;-46
2022/04/08 07:52:03;;;;;;;62.80;40.95;;;;;;;;;;5082444;28;20759;-47
2022/04/08 07:54:28;;;;;;;56.55;39.42;;;;;;;;;;5082071;28;20047;-41
2022/04/08 07:56:53;;;;;;;64.03;41.75;;;;;;;;;;5080966;28;20044;-46
2022/04/08 07:59:19;;;;;;;71.47;44.92;;;;;;;;;;5081829;28;20042;-47
2022/04/08 08:01:46;;;;;;;69.75;40.53;;;;;;;;;;5078536;28;20048;-43
2022/04/08 08:04:11;;;;;;;65.40;24.73;;;;;;;;;;5081299;28;20621;-50
2022/04/08 08:06:36;;;;;;;14.18;6.43;;;;;;;;;;5079286;28;20063;-45
2022/04/08 08:09:02;;;;;;;18.23;8.38;;;;;;;;;;5077142;28;20109;-45
2022/04/08 08:11:27;;;;;;;18.25;7.05;;;;;;;;;;5078974;28;20076;-43
2022/04/08 08:13:53;;;;;;;8.52;4.90;;;;;;;;;;5081951;28;20070;-48
2022/04/08 08:16:18;;;;;;;11.82;7.60;;;;;;;;;;5079115;28;20055;-41
2022/04/08 08:18:44;;;;;;;8.20;5.97;;;;;;;;;;5076680;28;20129;-46
2022/04/08 08:21:09;;;;;;;10.40;7.03;;;;;;;;;;5073202;28;20047;-46
2022/04/08 08:23:34;;;;;;;37.15;6.38;;;;;;;;;;5078774;28;20617;-42
2022/04/08 08:25:59;;;;;;;7.22;3.78;;;;;;;;;;5082044;28;20134;-43
2022/04/08 08:28:25;;;;;;;10.77;4.13;;;;;;;;;;5080785;28;20401;-43
2022/04/08 08:30:50;;;;;;;5.50;3.92;;;;;;;;;;5080177;28;20133;-48
2022/04/08 08:33:15;;;;;;;10.93;5.78;;;;;;;;;;5081268;28;20048;-40
2022/04/08 08:35:41;;;;;;;74.47;15.55;;;;;;;;;;5079900;28;20045;-48
2022/04/08 08:38:07;;;;;;;14.02;4.63;;;;;;;;;;5076588;28;20128;-44
2022/04/08 08:40:33;;;;;;;5.35;3.85;;;;;;;;;;5078359;28;20044;-44
2022/04/08 08:42:59;;;;;;;11.57;4.97;;;;;;;;;;5076261;28;20590;-44
2022/04/08 08:45:29;;;;;;;21.90;5.90;;;;;;;;;;5081619;28;20044;-42
2022/04/08 08:47:58;;;;;;;15.80;4.55;;;;;;;;;;5077939;28;21154;-45
2022/04/08 08:50:24;;;;;;;17.88;3.97;;;;;;;;;;5076740;28;20112;-46
2022/04/08 08:52:50;;;;;;;8.75;3.85;;;;;;;;;;5076294;28;20567;-46
2022/04/08 08:55:15;;;;;;;5.72;3.58;;;;;;;;;;5073920;28;20431;-47
2022/04/08 08:57:42;;;;;;;10.80;7.90;;;;;;;;;;5078154;28;20051;-43
2022/04/08 09:00:12;;;;;;;10.05;5.72;;;;;;;;;;5081062;28;20599;-48
2022/04/08 09:02:38;;;;;;;9.85;5.38;;;;;;;;;;5078968;28;20048;-45
2022/04/08 09:05:23;;;;;;;15.43;6.65;;;;;;;;;;5080536;28;20567;-47
2022/04/08 09:07:59;;;;;;;25.38;16.77;;;;;;;;;;5077268;28;20046;-47
2022/04/08 09:10:29;;;;;;;9.15;6.32;;;;;;;;;;5080287;28;20083;-46
2022/04/08 09:12:55;;;;;;;16.38;7.47;;;;;;;;;;5078113;28;20044;-45
2022/04/08 09:15:20;;;;;;;11.40;8.35;;;;;;;;;;5083047;28;20110;-45
2022/04/08 09:17:46;;;;;;;17.08;10.02;;;;;;;;;;5085043;28;20406;-47
2022/04/08 09:20:12;;;;;;;14.35;8.07;;;;;;;;;;5083737;28;20126;-48
2022/04/08 09:22:37;;;;;;;15.55;8.77;;;;;;;;;;5081263;28;20335;-42
2022/04/08 09:25:23;;;;;;;14.32;5.95;;;;;;;;;;5078561;28;20043;-47
2022/04/08 09:27:48;;;;;;;5.95;3.83;;;;;;;;;;5083891;28;20574;-45
2022/04/08 09:30:18;;;;;;;9.40;3.83;;;;;;;;;;5085191;28;20139;-44
2022/04/08 09:32:43;;;;;;;6.18;3.47;;;;;;;;;;5085301;28;20044;-46
2022/04/08 09:35:15;;;;;;;10.85;2.78;;;;;;;;;;5081458;28;20729;-43
2022/04/08 09:37:41;;;;;;;17.40;3.80;;;;;;;;;;5085031;28;20178;-51
2022/04/08 09:40:08;;;;;;;5.20;3.30;;;;;;;;;;5082675;28;20533;-43
2022/04/08 09:42:44;;;;;;;8.43;4.10;;;;;;;;;;5086035;28;20048;-44
2022/04/08 09:45:10;;;;;;;13.43;5.43;;;;;;;;;;5077047;28;20052;-49
2022/04/08 09:47:36;;;;;;;16.30;3.97;;;;;;;;;;5084249;28;20052;-43
2022/04/08 09:50:01;;;;;;;29.52;6.68;;;;;;;;;;5082367;28;20047;-48
2022/04/08 09:52:27;;;;;;;9.68;2.50;;;;;;;;;;5079919;28;20514;-43
2022/04/08 09:54:53;;;;;;;10.70;3.35;;;;;;;;;;5082314;28;20104;-45
2022/04/08 09:57:18;;;;;;;4.05;2.58;;;;;;;;;;5082986;28;20506;-43
2022/04/08 09:59:49;;;;;;;26.38;5.38;;;;;;;;;;5082328;28;20127;-47
2022/04/08 10:02:15;;;;;;;21.45;5.05;;;;;;;;;;5076090;28;20665;-48
2022/04/08 10:04:42;;;;;;;13.75;3.53;;;;;;;;;;5079095;28;20041;-45
2022/04/08 10:07:07;;;;;;;8.15;3.13;;;;;;;;;;5079946;28;20043;-43
2022/04/08 10:09:34;;;;;;;7.72;2.65;;;;;;;;;;5078875;28;20415;-46
2022/04/08 10:12:03;;;;;;;5.32;3.47;;;;;;;;;;5083798;28;20503;-45
2022/04/08 10:14:28;;;;;;;5.75;2.00;;;;;;;;;;5083155;28;20036;-44
2022/04/08 10:16:55;;;;;;;8.05;2.88;;;;;;;;;;5082898;28;20035;-47
2022/04/08 10:19:23;;;;;;;16.35;3.63;;;;;;;;;;5082822;28;20067;-45
2022/04/08 10:21:55;;;;;;;9.07;2.92;;;;;;;;;;5078303;28;20044;-44
2022/04/08 10:24:23;;;;;;;2.45;1.75;;;;;;;;;;5079551;28;20040;-47
2022/04/08 10:27:09;;;;;;;6.90;3.05;;;;;;;;;;5083187;28;20687;-44
2022/04/08 10:29:35;;;;;;;13.98;3.58;;;;;;;;;;5084104;28;20782;-47
2022/04/08 10:32:02;;;;;;;8.10;2.72;;;;;;;;;;5078221;28;20137;-49
2022/04/08 10:34:29;;;;;;;8.20;4.45;;;;;;;;;;5081867;28;20036;-46
2022/04/08 10:36:54;;;;;;;5.05;3.20;;;;;;;;;;5079280;28;20048;-47
2022/04/08 10:39:21;;;;;;;9.38;2.40;;;;;;;;;;5078625;28;20070;-42
2022/04/08 10:41:53;;;;;;;5.85;2.40;;;;;;;;;;5082540;28;20062;-45
2022/04/08 10:44:39;;;;;;;6.55;4.35;;;;;;;;;;5081076;28;20092;-48
2022/04/08 10:47:19;;;;;;;23.13;8.75;;;;;;;;;;5079450;28;20044;-46
2022/04/08 10:49:47;;;;;;;21.13;7.63;;;;;;;;;;5082319;28;20039;-43
2022/04/08 10:52:35;;;;;;;19.92;6.55;;;;;;;;;;5082850;28;20273;-49
2022/04/08 10:55:07;;;;;;;3.35;2.38;;;;;;;;;;5074714;28;20049;-48
2022/04/08 10:57:40;;;;;;;11.10;5.63;;;;;;;;;;5079873;28;20044;-48
2022/04/08 11:00:07;;;;;;;60.63;9.57;;;;;;;;;;5080847;28;20493;-43
2022/04/08 11:02:36;;;;;;;4.43;1.40;;;;;;;;;;5083233;28;20047;-49
2022/04/08 11:05:06;;;;;;;5.13;2.40;;;;;;;;;;5082907;28;20052;-46
2022/04/08 11:07:34;;;;;;;13.68;2.17;;;;;;;;;;5081370;28;20584;-45
2022/04/08 11:10:00;;;;;;;3.95;2.22;;;;;;;;;;5079615;28;20050;-46
2022/04/08 11:12:28;;;;;;;4.88;1.55;;;;;;;;;;5076697;28;20694;-48
2022/04/08 11:14:54;;;;;;;1.63;1.00;;;;;;;;;;5074038;28;20047;-47
2022/04/08 11:17:22;;;;;;;7.28;1.15;;;;;;;;;;5082716;28;20625;-47
2022/04/08 11:19:50;;;;;;;1.90;1.23;;;;;;;;;;5079951;28;21024;-47
2022/04/08 11:22:16;;;;;;;15.15;3.28;;;;;;;;;;5076150;28;20062;-48
2022/04/08 11:24:41;;;;;;;7.35;5.72;;;;;;;;;;5078120;28;20104;-48
2022/04/08 11:27:08;;;;;;;11.07;3.58;;;;;;;;;;5082820;28;20527;-44
2022/04/08 11:29:36;;;;;;;7.32;2.75;;;;;;;;;;5080192;28;20048;-44
2022/04/08 11:32:09;;;;;;;2.03;1.25;;;;;;;;;;5082595;28;20076;-45
2022/04/08 11:34:34;;;;;;;4.53;2.92;;;;;;;;;;5079409;28;20039;-44
2022/04/08 11:36:59;;;;;;;1.23;0.90;;;;;;;;;;5083181;28;20147;-49
2022/04/08 11:39:27;;;;;;;6.72;2.70;;;;;;;;;;5079412;28;20477;-45
2022/04/08 11:41:53;;;;;;;14.68;2.20;;;;;;;;;;5080811;28;20083;-46
2022/04/08 11:44:19;;;;;;;12.93;3.20;;;;;;;;;;5080082;28;20791;-46
2022/04/08 11:46:47;;;;;;;5.57;3.78;;;;;;;;;;5080729;28;20047;-47
2022/04/08 11:49:12;;;;;;;9.50;2.38;;;;;;;;;;5076884;28;20083;-44
2022/04/08 11:51:38;;;;;;;8.98;2.15;;;;;;;;;;5079626;28;20043;-46
2022/04/08 11:54:04;;;;;;;2.88;2.22;;;;;;;;;;5080054;28;20074;-48
2022/04/08 11:56:30;;;;;;;5.32;3.58;;;;;;;;;;5078213;28;20045;-44
2022/04/08 11:58:56;;;;;;;7.75;5.50;;;;;;;;;;5076325;28;20100;-49
2022/04/08 12:01:22;;;;;;;13.98;4.95;;;;;;;;;;5076170;28;20044;-47
2022/04/08 12:03:49;;;;;;;12.00;4.13;;;;;;;;;;5076582;28;20045;-47
2022/04/08 12:06:14;;;;;;;2.85;2.42;;;;;;;;;;5078457;28;20046;-45
2022/04/08 12:08:39;;;;;;;7.57;2.42;;;;;;;;;;5080790;28;20052;-51
2022/04/08 12:11:09;;;;;;;5.40;2.85;;;;;;;;;;5076497;28;20592;-45
2022/04/08 12:13:35;;;;;;;5.78;2.22;;;;;;;;;;5074890;28;20605;-50
2022/04/08 12:16:00;;;;;;;7.53;3.08;;;;;;;;;;5081405;28;20056;-46
2022/04/08 12:18:26;;;;;;;6.13;2.35;;;;;;;;;;5076846;28;20040;-48
2022/04/08 12:20:56;;;;;;;26.83;8.45;;;;;;;;;;5079834;28;20047;-46
2022/04/08 12:23:22;;;;;;;13.55;2.53;;;;;;;;;;5079446;28;20406;-46
2022/04/08 12:25:52;;;;;;;13.95;6.25;;;;;;;;;;5081824;28;20050;-42
2022/04/08 12:28:18;;;;;;;9.98;4.13;;;;;;;;;;5077869;28;20048;-43
2022/04/08 12:30:43;;;;;;;8.90;4.32;;;;;;;;;;5082738;28;20135;-43
2022/04/08 12:33:09;;;;;;;4.68;2.38;;;;;;;;;;5081407;28;20544;-44
2022/04/08 12:35:34;;;;;;;26.48;9.00;;;;;;;;;;5082548;28;20060;-44
2022/04/08 12:37:59;;;;;;;6.10;2.65;;;;;;;;;;5082239;28;20701;-43
2022/04/08 12:40:25;;;;;;;3.33;1.55;;;;;;;;;;5075407;28;20146;-43
2022/04/08 12:42:50;;;;;;;5.32;1.42;;;;;;;;;;5079105;28;20052;-45
2022/04/08 12:45:16;;;;;;;10.48;1.08;;;;;;;;;;5080434;28;20040;-43
2022/04/08 12:47:41;;;;;;;2.05;1.38;;;;;;;;;;5083545;28;20055;-42
2022/04/08 12:50:12;;;;;;;27.38;4.78;;;;;;;;;;5085566;28;20082;-48
2022/04/08 12:52:38;;;;;;;5.07;0.90;;;;;;;;;;5088543;28;20059;-45
2022/04/08 12:55:04;;;;;;;13.30;1.10;;;;;;;;;;5086887;28;20040;-46
2022/04/08 12:57:32;;;;;;;1.90;0.95;;;;;;;;;;5087301;28;20507;-47
2022/04/08 12:59:57;;;;;;;12.50;1.35;;;;;;;;;;5086526;28;20059;-43
2022/04/08 13:02:23;;;;;;;3.28;2.97;;;;;;;;;;5087338;28;20044;-47
2022/04/08 13:04:49;;;;;;;15.20;2.45;;;;;;;;;;5086510;28;20040;-46
2022/04/08 13:07:14;;;;;;;6.88;1.60;;;;;;;;;;5081942;28;20072;-47
2022/04/08 13:09:39;;;;;;;9.13;1.30;;;;;;;;;;5084748;28;20530;-45
2022/04/08 13:12:05;;;;;;;7.78;0.90;;;;;;;;;;5089042;28;20068;-50
2022/04/08 13:14:30;;;;;;;2.05;0.98;;;;;;;;;;5085561;28;20081;-44
2022/04/08 13:16:55;;;;;;;26.67;5.20;;;;;;;;;;5083345;28;20435;-47
2022/04/08 13:19:21;;;;;;;3.40;1.90;;;;;;;;;;5083139;28;20082;-48
2022/04/08 13:21:46;;;;;;;1.70;0.90;;;;;;;;;;5087596;28;20178;-42
2022/04/08 13:24:11;;;;;;;44.60;6.65;;;;;;;;;;5088438;28;20533;-45
2022/04/08 13:26:37;;;;;;;1.08;0.57;;;;;;;;;;5088804;28;20059;-42
2022/04/08 13:29:03;;;;;;;1.13;0.63;;;;;;;;;;5087275;28;20396;-45
2022/04/08 13:31:30;;;;;;;1.42;0.70;;;;;;;;;;5087176;28;20056;-44
2022/04/08 13:33:55;;;;;;;1.88;1.25;;;;;;;;;;5083374;28;20059;-46
2022/04/08 13:36:20;;;;;;;13.88;1.02;;;;;;;;;;5084517;28;20152;-50
2022/04/08 13:38:46;;;;;;;1.85;1.10;;;;;;;;;;5084767;28;20075;-45
2022/04/08 13:41:11;;;;;;;5.38;1.60;;;;;;;;;;5087709;28;20418;-43
2022/04/08 13:43:36;;;;;;;10.23;1.33;;;;;;;;;;5085450;28;20089;-47
2022/04/08 13:46:02;;;;;;;1.77;1.13;;;;;;;;;;5085608;28;20125;-44
2022/04/08 13:48:28;;;;;;;0.70;0.68;;;;;;;;;;5082494;28;20413;-44
2022/04/08 13:50:53;;;;;;;1.63;0.50;;;;;;;;;;5081732;28;20052;-43
2022/04/08 13:53:18;;;;;;;1.02;0.57;;;;;;;;;;5083760;28;20515;-42
2022/04/08 13:55:44;;;;;;;8.70;1.45;;;;;;;;;;5085173;28;20546;-46
2022/04/08 13:58:09;;;;;;;0.60;0.52;;;;;;;;;;5085286;28;20605;-43
2022/04/08 14:00:35;;;;;;;1.20;0.63;;;;;;;;;;5079536;28;20076;-41
2022/04/08 14:03:00;;;;;;;3.95;1.17;;;;;;;;;;5080265;28;20044;-45
2022/04/08 14:05:26;;;;;;;2.13;0.73;;;;;;;;;;5083752;28;20396;-45
2022/04/08 14:07:51;;;;;;;3.47;1.95;;;;;;;;;;5081325;28;20042;-42
2022/04/08 14:10:16;;;;;;;4.57;0.82;;;;;;;;;;5081769;28;20498;-45
2022/04/08 14:12:42;;;;;;;1.65;0.57;;;;;;;;;;5084166;28;20048;-44
2022/04/08 14:15:07;;;;;;;1.52;1.05;;;;;;;;;;5081623;28;20036;-42
2022/04/08 14:17:32;;;;;;;2.72;1.45;;;;;;;;;;5081934;28;20438;-51
2022/04/08 14:19:59;;;;;;;2.20;0.80;;;;;;;;;;5079807;28;20099;-44
2022/04/08 14:22:24;;;;;;;1.85;0.65;;;;;;;;;;5083078;28;20059;-42
2022/04/08 14:24:49;;;;;;;17.52;2.10;;;;;;;;;;5076482;28;20048;-45
2022/04/08 14:27:15;;;;;;;2.42;0.80;;;;;;;;;;5074742;28;20533;-45
2022/04/08 14:29:40;;;;;;;1.58;0.93;;;;;;;;;;5082580;28;20056;-46